Time;durP1;ratioP1;P1;durP2;ratioP2;P2;SDS_P1;SDS_P2;PMS_P1;PMS_P2;Temp;Humidity;BMP_temperature;BMP_pressure;BME280_temperature;BME280_humidity;BME280_pressure;Samples;Min_cycle;Max_cycle;Signal;HPM_P1;HPM_P2
2021/04/06 00:00:00;;;;;;;4.90;1.95;;;;;;;3.52;99.86;92337.59;5013181;28;20049;-83
2021/04/06 00:02:28;;;;;;;4.20;2.15;;;;;;;3.55;99.65;92338.00;5013156;28;20054;-83
2021/04/06 00:05:05;;;;;;;4.57;2.53;;;;;;;3.41;100.00;92323.66;5012838;28;20057;-82
2021/04/06 00:07:32;;;;;;;3.88;2.28;;;;;;;3.51;100.00;92344.44;5012544;28;20419;-82
2021/04/06 00:10:01;;;;;;;4.63;2.67;;;;;;;3.46;100.00;92336.59;5012925;28;20072;-83
2021/04/06 00:12:29;;;;;;;3.78;1.55;;;;;;;3.38;100.00;92327.38;5021996;28;20053;-82
2021/04/06 00:14:59;;;;;;;4.40;2.42;;;;;;;3.36;100.00;92324.25;5033455;28;20050;-82
2021/04/06 00:17:26;;;;;;;4.63;2.47;;;;;;;3.31;100.00;92316.41;5032376;28;20053;-82
2021/04/06 00:19:56;;;;;;;3.22;1.65;;;;;;;3.27;100.00;92321.06;5032712;28;20053;-81
2021/04/06 00:22:26;;;;;;;6.43;2.13;;;;;;;3.10;100.00;92292.66;5032571;28;20041;-82
2021/04/06 00:24:54;;;;;;;4.75;3.45;;;;;;;3.25;100.00;92305.25;5032711;28;20092;-82
2021/04/06 00:27:22;;;;;;;2.70;1.65;;;;;;;3.29;100.00;92298.81;5019553;28;20064;-82
2021/04/06 00:29:52;;;;;;;5.40;2.35;;;;;;;3.33;100.00;92297.47;5012523;28;20120;-82
2021/04/06 00:32:21;;;;;;;4.28;2.00;;;;;;;3.32;100.00;92292.56;5012588;28;20560;-82
2021/04/06 00:34:52;;;;;;;4.15;2.08;;;;;;;3.36;100.00;92285.38;5012331;28;20056;-82
2021/04/06 00:37:19;;;;;;;4.85;2.50;;;;;;;3.33;100.00;92278.91;5011853;28;20056;-82
2021/04/06 00:39:47;;;;;;;3.05;2.22;;;;;;;3.30;100.00;92282.63;5002816;28;20096;-83
2021/04/06 00:42:18;;;;;;;3.85;2.25;;;;;;;3.32;100.00;92284.97;4992914;28;20046;-82
2021/04/06 00:44:48;;;;;;;3.95;2.38;;;;;;;3.17;100.00;92252.88;4992552;28;20058;-82
2021/04/06 00:47:15;;;;;;;4.55;2.53;;;;;;;3.30;100.00;92275.03;4992733;28;20208;-82
2021/04/06 00:49:43;;;;;;;4.38;1.90;;;;;;;3.32;100.00;92275.59;4992831;28;20404;-82
2021/04/06 00:52:11;;;;;;;5.40;2.22;;;;;;;3.27;100.00;92264.44;4997503;28;20068;-84
2021/04/06 00:54:38;;;;;;;4.63;2.40;;;;;;;3.09;100.00;92242.88;5011713;28;20053;-81
2021/04/06 00:57:06;;;;;;;5.07;2.17;;;;;;;3.15;100.00;92254.81;5008552;28;20049;-82
2021/04/06 00:59:33;;;;;;;5.70;2.22;;;;;;;3.11;100.00;92238.41;5006396;28;20050;-82
2021/04/06 01:02:02;;;;;;;2.70;1.85;;;;;;;2.98;100.00;92223.13;4992326;28;20050;-82
2021/04/06 01:04:32;;;;;;;3.53;2.10;;;;;;;3.10;100.00;92244.44;4992336;28;20057;-81
2021/04/06 01:07:07;;;;;;;3.95;2.50;;;;;;;3.12;100.00;92244.25;4992487;28;20042;-82
2021/04/06 01:09:42;;;;;;;5.38;2.25;;;;;;;3.00;100.00;92227.03;4992618;28;20157;-82
2021/04/06 01:12:10;;;;;;;5.20;3.15;;;;;;;3.02;100.00;92230.16;5005556;28;20673;-82
2021/04/06 01:14:37;;;;;;;2.30;1.95;;;;;;;3.00;100.00;92226.25;5028843;28;20049;-82
2021/04/06 01:17:05;;;;;;;5.60;3.17;;;;;;;3.12;100.00;92244.25;5011871;28;20053;-82
2021/04/06 01:19:33;;;;;;;5.82;2.90;;;;;;;3.18;100.00;92239.22;4996448;28;20057;-82
2021/04/06 01:22:03;;;;;;;5.05;2.60;;;;;;;3.17;100.00;92240.19;4993033;28;20050;-82
2021/04/06 01:24:32;;;;;;;5.03;2.60;;;;;;;3.22;100.00;92229.47;5011590;28;20128;-81
2021/04/06 01:26:59;;;;;;;5.18;3.03;;;;;;;3.19;100.00;92224.75;5011503;28;20042;-81
2021/04/06 01:29:26;;;;;;;5.30;2.03;;;;;;;3.21;100.00;92225.38;5011617;28;20062;-81
2021/04/06 01:31:53;;;;;;;5.70;2.53;;;;;;;3.19;100.00;92215.41;5010960;28;20056;-85
2021/04/06 01:34:20;;;;;;;4.15;2.58;;;;;;;2.98;100.00;92182.53;5011228;28;20054;-82
2021/04/06 01:36:47;;;;;;;4.10;1.90;;;;;;;3.29;100.00;92217.59;5011175;28;20046;-84
2021/04/06 01:39:15;;;;;;;4.07;2.85;;;;;;;3.26;100.00;92212.13;5011262;28;20054;-84
2021/04/06 01:41:45;;;;;;;4.85;2.63;;;;;;;3.03;100.00;92181.00;5011333;28;20180;-85
2021/04/06 01:44:13;;;;;;;6.10;2.80;;;;;;;3.12;100.00;92194.31;5011126;28;20143;-84
2021/04/06 01:46:40;;;;;;;4.72;2.03;;;;;;;3.19;100.00;92199.38;5011222;28;20065;-80
2021/04/06 01:49:07;;;;;;;4.15;3.17;;;;;;;3.22;100.00;92211.72;5011180;28;20045;-82
2021/04/06 01:51:33;;;;;;;5.10;2.50;;;;;;;3.07;100.00;92189.78;5010959;28;20423;-83
2021/04/06 01:54:04;;;;;;;3.80;2.50;;;;;;;3.20;100.00;92221.28;5010670;28;20482;-83
2021/04/06 01:56:33;;;;;;;3.60;1.85;;;;;;;3.21;100.00;92213.47;5010886;28;20133;-83
2021/04/06 01:59:04;;;;;;;4.30;2.53;;;;;;;3.11;100.00;92200.34;5010157;28;20514;-83
2021/04/06 02:01:31;;;;;;;4.88;3.25;;;;;;;3.23;100.00;92199.81;5010726;28;20050;-84
2021/04/06 02:04:01;;;;;;;6.55;3.05;;;;;;;3.12;100.00;92186.69;5010726;28;20056;-83
2021/04/06 02:06:29;;;;;;;5.43;2.35;;;;;;;3.24;100.00;92198.84;5010576;28;20045;-83
2021/04/06 02:08:56;;;;;;;7.28;2.72;;;;;;;3.14;100.00;92182.19;5010509;28;20064;-82
2021/04/06 02:11:24;;;;;;;6.72;3.70;;;;;;;3.24;100.00;92198.84;5011246;28;20054;-83
2021/04/06 02:13:51;;;;;;;4.72;2.53;;;;;;;3.15;100.00;92180.47;5030075;28;20046;-85
2021/04/06 02:16:18;;;;;;;4.35;1.83;;;;;;;2.89;100.00;92148.94;5030399;28;20056;-84
2021/04/06 02:18:52;;;;;;;6.43;3.13;;;;;;;3.20;100.00;92186.50;5030173;28;20045;-85
2021/04/06 02:21:21;;;;;;;4.70;2.88;;;;;;;3.19;100.00;92184.16;5030029;28;20049;-82
2021/04/06 02:23:48;;;;;;;7.78;3.38;;;;;;;3.19;100.00;92192.56;5030283;28;20514;-78
2021/04/06 02:26:15;;;;;;;4.90;2.63;;;;;;;3.18;100.00;92193.53;5026424;28;20424;-79
2021/04/06 02:28:42;;;;;;;5.25;2.83;;;;;;;3.15;100.00;92190.59;5010178;28;20050;-79
2021/04/06 02:31:09;;;;;;;4.85;3.15;;;;;;;3.13;100.00;92195.06;5010480;28;20057;-79
2021/04/06 02:33:38;;;;;;;6.35;3.63;;;;;;;3.21;100.00;92192.38;5010162;28;20533;-79
2021/04/06 02:36:07;;;;;;;4.10;2.72;;;;;;;3.20;100.00;92198.44;5010120;28;20522;-79
2021/04/06 02:38:34;;;;;;;5.70;2.78;;;;;;;3.17;100.00;92189.44;5010240;28;20092;-82
2021/04/06 02:41:06;;;;;;;9.80;2.97;;;;;;;3.09;100.00;92196.44;5010088;28;20045;-81
2021/04/06 02:43:47;;;;;;;4.93;1.83;;;;;;;3.06;100.00;92183.16;5010072;28;20069;-81
2021/04/06 02:46:14;;;;;;;6.18;3.17;;;;;;;3.08;100.00;92198.19;5010343;28;20046;-82
2021/04/06 02:48:42;;;;;;;4.43;2.08;;;;;;;3.13;100.00;92205.22;5010020;28;20093;-81
2021/04/06 02:51:09;;;;;;;5.03;2.78;;;;;;;3.13;100.00;92193.31;5009706;28;20069;-81
2021/04/06 02:53:38;;;;;;;6.38;2.95;;;;;;;3.12;100.00;92188.44;5009892;28;20418;-82
2021/04/06 02:56:05;;;;;;;5.50;2.95;;;;;;;3.04;100.00;92180.03;5010063;28;20137;-82
2021/04/06 02:58:36;;;;;;;7.68;3.25;;;;;;;3.01;100.00;92187.22;5009840;28;20099;-82
2021/04/06 03:01:13;;;;;;;7.72;2.85;;;;;;;3.02;100.00;92192.09;5009743;28;20046;-81
2021/04/06 03:03:40;;;;;;;7.93;3.05;;;;;;;3.07;100.00;92197.38;5009844;28;20061;-80
2021/04/06 03:06:09;;;;;;;4.78;2.75;;;;;;;2.79;100.00;92167.81;5009925;28;20062;-81
2021/04/06 03:08:36;;;;;;;5.28;2.58;;;;;;;3.00;100.00;92195.81;5009670;28;20049;-82
2021/04/06 03:11:04;;;;;;;7.25;3.78;;;;;;;3.00;100.00;92188.97;5008964;28;20049;-83
2021/04/06 03:13:30;;;;;;;4.30;2.63;;;;;;;3.04;100.00;92195.25;5027390;28;20506;-80
2021/04/06 03:15:58;;;;;;;6.65;3.88;;;;;;;3.07;100.00;92189.00;5029182;28;20072;-80
2021/04/06 03:18:32;;;;;;;5.40;2.92;;;;;;;3.02;100.00;92183.72;5029300;28;20042;-81
2021/04/06 03:21:01;;;;;;;4.07;2.17;;;;;;;2.99;100.00;92179.81;5029193;28;20079;-81
2021/04/06 03:23:32;;;;;;;4.63;1.90;;;;;;;3.02;100.00;92161.66;5029093;28;20495;-82
2021/04/06 03:25:58;;;;;;;4.00;2.92;;;;;;;2.76;100.00;92131.88;5028016;28;20426;-82
2021/04/06 03:28:34;;;;;;;3.95;2.22;;;;;;;3.05;100.00;92168.09;5009687;28;20042;-82
2021/04/06 03:31:12;;;;;;;4.78;2.65;;;;;;;3.06;100.00;92170.47;5009449;28;20072;-82
2021/04/06 03:33:40;;;;;;;5.70;2.65;;;;;;;3.11;100.00;92179.25;5009477;28;20042;-82
2021/04/06 03:36:06;;;;;;;6.22;3.40;;;;;;;3.17;100.00;92181.03;5009687;28;20069;-82
2021/04/06 03:38:35;;;;;;;4.00;2.55;;;;;;;3.19;100.00;92184.16;5009420;28;20148;-83
2021/04/06 03:41:02;;;;;;;4.35;2.50;;;;;;;3.14;100.00;92183.97;5009327;28;20061;-81
2021/04/06 03:43:41;;;;;;;4.80;2.85;;;;;;;3.10;100.00;92182.78;5009146;28;20424;-82
2021/04/06 03:46:08;;;;;;;8.57;3.33;;;;;;;2.92;100.00;92159.47;5009666;28;20053;-82
2021/04/06 03:48:37;;;;;;;4.43;2.05;;;;;;;3.14;100.00;92184.75;5009241;28;20574;-82
2021/04/06 03:51:04;;;;;;;5.53;3.08;;;;;;;3.16;100.00;92170.09;5009022;28;20525;-81
2021/04/06 03:53:39;;;;;;;7.95;3.53;;;;;;;3.05;100.00;92158.75;5001656;28;20046;-84
2021/04/06 03:56:07;;;;;;;4.72;2.80;;;;;;;3.21;100.00;92167.78;4989590;28;20492;-83
2021/04/06 03:58:38;;;;;;;3.63;2.88;;;;;;;3.19;100.00;92156.25;4989749;28;20552;-83
2021/04/06 04:01:05;;;;;;;8.38;2.55;;;;;;;3.11;100.00;92152.16;5006286;28;20499;-84
2021/04/06 04:03:32;;;;;;;4.07;2.63;;;;;;;2.88;100.00;92114.41;5009143;28;20065;-83
2021/04/06 04:05:58;;;;;;;4.40;2.70;;;;;;;3.20;100.00;92176.38;5008949;28;20513;-83
2021/04/06 04:08:24;;;;;;;3.13;2.38;;;;;;;3.13;100.00;92162.88;5008979;28;20053;-85
2021/04/06 04:10:51;;;;;;;;;;;;;;;3.16;100.00;92172.63;5009129;28;20057;-84
2021/04/06 04:13:18;;;;;;;5.85;3.83;;;;;;;3.14;100.00;92177.13;5008596;28;19929;-83
2021/04/06 04:15:44;;;;;;;;;;;;;;;3.18;100.00;92182.59;5009400;28;20056;-84
2021/04/06 04:18:11;;;;;;;3.42;2.13;;;;;;;3.04;100.00;92157.19;5008733;28;19925;-84
2021/04/06 04:20:37;;;;;;;4.32;2.67;;;;;;;3.24;100.00;92178.53;5008868;28;20050;-85
2021/04/06 04:23:03;;;;;;;;;;;;;;;3.33;100.00;92183.25;5013206;28;20081;-87
2021/04/06 04:25:29;;;;;;;9.02;4.43;;;;;;;3.27;100.00;92180.69;5012288;28;19997;-85
2021/04/06 04:27:57;;;;;;;8.52;3.60;;;;;;;3.12;100.00;92148.63;5012312;28;20049;-84
2021/04/06 04:30:38;;;;;;;3.45;2.55;;;;;;;3.34;100.00;92174.66;5012323;28;20052;-83
2021/04/06 04:33:05;;;;;;;5.25;3.05;;;;;;;3.19;100.00;92148.63;5012528;28;20045;-84
2021/04/06 04:35:32;;;;;;;7.30;3.72;;;;;;;3.39;100.00;92169.03;5012490;28;20121;-86
2021/04/06 04:37:58;;;;;;;5.50;3.60;;;;;;;3.45;100.00;92180.16;5012619;28;20054;-85
2021/04/06 04:40:25;;;;;;;5.90;3.45;;;;;;;3.45;100.00;92170.00;5012501;28;20494;-83
2021/04/06 04:42:52;;;;;;;;;;;;;;;3.48;100.00;92169.63;5012775;28;20057;-86
2021/04/06 04:45:19;;;;;;;6.20;3.47;;;;;;;3.20;100.00;92129.91;5011943;28;19925;-87
2021/04/06 04:47:46;;;;;;;8.93;4.43;;;;;;;3.52;100.00;92152.25;5012061;28;20046;-85
2021/04/06 04:50:13;;;;;;;6.78;2.70;;;;;;;3.56;100.00;92150.91;5012070;28;20046;-86
2021/04/06 04:52:43;;;;;;;5.47;2.95;;;;;;;3.53;100.00;92148.72;5012070;28;20049;-82
2021/04/06 04:55:11;;;;;;;6.38;2.83;;;;;;;3.65;100.00;92154.81;5011667;28;20426;-85
2021/04/06 04:57:37;;;;;;;8.77;3.30;;;;;;;3.73;100.00;92157.16;5012207;28;20046;-83
2021/04/06 05:00:04;;;;;;;;;;;;;;;3.77;100.00;92151.69;5012499;28;20060;-83
2021/04/06 05:02:31;;;;;;;6.90;2.50;;;;;;;3.70;100.00;92144.09;5011622;28;19928;-84
2021/04/06 05:04:58;;;;;;;5.22;3.17;;;;;;;3.55;100.00;92108.69;5011971;28;20049;-87
2021/04/06 05:07:24;;;;;;;;;;;;;;;3.97;100.00;92155.03;5012173;28;20038;-87
2021/04/06 05:09:50;;;;;;;5.05;2.55;;;;;;;4.08;100.00;92145.25;5011562;28;19971;-85
2021/04/06 05:12:17;;;;;;;7.90;3.47;;;;;;;4.30;100.00;92142.50;5011460;28;20057;-86
2021/04/06 05:14:44;;;;;;;;;;;;;;;4.40;100.00;92145.44;5012326;28;20045;-86
2021/04/06 05:17:11;;;;;;;6.38;3.15;;;;;;;4.53;100.00;92140.31;5011784;28;19967;-86
2021/04/06 05:19:38;;;;;;;;;;;;;;;4.73;100.00;92143.78;5007702;28;20510;-89
2021/04/06 05:22:05;;;;;;;6.22;3.97;;;;;;;4.60;100.00;92114.09;5010063;28;19944;-87
2021/04/06 05:24:31;;;;;;;5.93;3.55;;;;;;;5.07;99.11;92147.00;5011080;28;20056;-86
2021/04/06 05:26:57;;;;;;;;;;;;;;;5.26;98.10;92155.56;5011904;28;20042;-89
2021/04/06 05:29:23;;;;;;;8.48;3.28;;;;;;;5.27;96.53;92133.44;5011210;28;19931;-89
2021/04/06 05:31:52;;;;;;;;;;;;;;;5.58;95.96;92150.50;5011468;28;20050;-91
2021/04/06 05:34:18;;;;;;;7.03;3.95;;;;;;;5.35;94.80;92103.41;5011491;28;20386;-90
2021/04/06 05:40:37;;;;;;;5.22;3.33;;;;;;;5.89;93.08;92143.81;4959342;28;20050;-93
2021/04/06 05:46:15;;;;;;;5.72;2.60;;;;;;;6.15;91.17;92136.19;4991758;28;20129;-85
2021/04/06 05:48:45;;;;;;;6.88;3.40;;;;;;;6.32;90.74;92136.47;4993199;28;20046;-83
2021/04/06 05:51:11;;;;;;;5.90;2.60;;;;;;;6.45;89.45;92132.22;4992868;28;20050;-85
2021/04/06 05:53:39;;;;;;;7.50;4.07;;;;;;;6.62;88.65;92135.03;4992927;28;20058;-85
2021/04/06 05:56:06;;;;;;;5.65;3.13;;;;;;;6.78;88.57;92138.78;4993124;28;20050;-84
2021/04/06 05:58:32;;;;;;;6.40;2.78;;;;;;;6.90;87.23;92138.84;4992968;28;20054;-85
2021/04/06 06:00:59;;;;;;;;;;;;;;;7.02;86.68;92136.34;4993249;28;20050;-86
2021/04/06 06:03:25;;;;;;;5.60;2.72;;;;;;;7.20;86.48;92127.91;4992743;28;19926;-85
2021/04/06 06:05:51;;;;;;;;;;;;;;;7.44;85.11;92127.97;4993225;28;20053;-86
2021/04/06 06:08:19;;;;;;;5.55;2.50;;;;;;;7.61;84.03;92121.28;4992715;28;19921;-84
2021/04/06 06:10:46;;;;;;;5.95;3.10;;;;;;;7.67;82.89;92101.72;4992716;28;20062;-85
2021/04/06 06:13:17;;;;;;;5.57;2.92;;;;;;;8.04;82.58;92128.91;4992606;28;20050;-84
2021/04/06 06:16:14;;;;;;;6.78;2.60;;;;;;;8.33;81.23;92123.94;4992552;28;20043;-84
2021/04/06 06:18:55;;;;;;;7.80;2.63;;;;;;;8.38;80.75;92115.59;4992750;28;20054;-85
2021/04/06 06:21:22;;;;;;;5.97;2.67;;;;;;;8.59;79.00;92121.16;4992560;28;20070;-84
2021/04/06 06:23:49;;;;;;;4.60;2.17;;;;;;;8.82;78.53;92123.72;4992322;28;20142;-83
2021/04/06 06:26:18;;;;;;;6.57;3.30;;;;;;;8.93;77.74;92116.22;4992281;28;20419;-86
2021/04/06 06:29:04;;;;;;;7.10;2.92;;;;;;;9.04;78.17;92115.44;4992158;28;20046;-86
2021/04/06 06:31:35;;;;;;;7.78;3.20;;;;;;;9.06;77.10;92110.06;4992360;28;20157;-85
2021/04/06 06:34:11;;;;;;;9.55;3.60;;;;;;;9.18;76.79;92118.53;4988333;28;20072;-86
2021/04/06 06:36:37;;;;;;;7.43;4.32;;;;;;;9.33;76.34;92106.97;4992144;28;20065;-86
2021/04/06 06:39:04;;;;;;;8.57;3.22;;;;;;;9.53;75.50;92113.47;4991765;28;20105;-85
2021/04/06 06:41:32;;;;;;;14.13;9.23;;;;;;;9.60;74.77;92114.13;4991833;28;20047;-84
2021/04/06 06:43:58;;;;;;;10.82;4.47;;;;;;;9.65;74.95;92098.81;4991919;28;20042;-85
2021/04/06 06:46:28;;;;;;;6.93;3.13;;;;;;;9.82;72.94;92108.31;4992171;28;20510;-85
2021/04/06 06:48:56;;;;;;;5.60;2.50;;;;;;;9.78;74.56;92097.75;4991746;28;20491;-86
2021/04/06 06:51:28;;;;;;;6.93;3.13;;;;;;;10.13;74.02;92095.94;4991716;28;20410;-88
2021/04/06 06:53:55;;;;;;;8.07;4.20;;;;;;;10.37;72.79;92088.84;4992280;28;20189;-84
2021/04/06 06:56:34;;;;;;;4.93;2.88;;;;;;;10.61;70.18;92080.22;4991075;28;20490;-86
2021/04/06 06:59:01;;;;;;;6.95;3.28;;;;;;;10.93;70.46;92077.75;4992191;28;20054;-86
2021/04/06 07:01:29;;;;;;;3.30;1.80;;;;;;;10.79;70.27;92077.34;4991788;28;20050;-88
2021/04/06 07:04:03;;;;;;;3.35;1.75;;;;;;;10.92;70.74;92078.78;4991669;28;20046;-86
2021/04/06 07:06:30;;;;;;;4.47;1.98;;;;;;;10.96;70.96;92068.81;4991676;28;20137;-86
2021/04/06 07:08:56;;;;;;;4.75;2.40;;;;;;;11.17;70.52;92076.75;4991610;28;20561;-85
2021/04/06 07:11:23;;;;;;;4.13;2.25;;;;;;;11.29;69.40;92074.81;4991775;28;20054;-87
2021/04/06 07:13:53;;;;;;;5.28;2.88;;;;;;;11.44;69.32;92071.59;4991533;28;20050;-84
2021/04/06 07:16:20;;;;;;;4.18;2.47;;;;;;;11.54;67.80;92044.44;4991362;28;20054;-85
2021/04/06 07:18:49;;;;;;;7.55;2.90;;;;;;;11.78;68.31;92060.34;4991253;28;20434;-85
2021/04/06 07:21:17;;;;;;;4.60;2.63;;;;;;;12.07;67.41;92062.63;4991425;28;20089;-87
2021/04/06 07:23:53;;;;;;;7.07;2.22;;;;;;;12.01;65.82;92056.66;4991623;28;20074;-86
2021/04/06 07:26:20;;;;;;;7.57;3.15;;;;;;;11.89;66.68;92045.75;4991431;28;20046;-86
2021/04/06 07:28:47;;;;;;;8.25;2.42;;;;;;;12.00;66.34;92054.31;4991279;28;20065;-85
2021/04/06 07:31:16;;;;;;;6.13;3.00;;;;;;;12.13;67.49;92045.44;4991246;28;20443;-86
2021/04/06 07:33:45;;;;;;;5.20;2.35;;;;;;;12.19;66.50;92035.94;4991299;28;20050;-87
2021/04/06 07:36:13;;;;;;;7.05;3.28;;;;;;;12.46;64.66;92040.22;4991447;28;20414;-86
2021/04/06 07:38:43;;;;;;;5.63;3.28;;;;;;;12.37;65.68;92032.94;4991264;28;20049;-84
2021/04/06 07:41:10;;;;;;;9.65;3.78;;;;;;;12.67;65.29;92036.72;4991504;28;20055;-85
2021/04/06 07:43:37;;;;;;;9.40;4.38;;;;;;;12.93;63.68;92038.59;4991189;28;20096;-85
2021/04/06 07:46:03;;;;;;;3.55;2.10;;;;;;;13.06;63.47;92043.28;4991392;28;20054;-85
2021/04/06 07:48:48;;;;;;;;;;;;;;;13.29;62.67;92040.50;4991649;28;20462;-85
2021/04/06 07:51:18;;;;;;;21.83;7.88;;;;;;;13.39;61.84;92032.00;4991326;28;19926;-83
2021/04/06 07:54:09;;;;;;;10.88;3.35;;;;;;;13.33;62.77;92021.69;4991020;28;20050;-83
2021/04/06 07:56:57;;;;;;;7.93;2.90;;;;;;;13.39;62.84;92027.63;4977979;28;20054;-83
2021/04/06 07:59:42;;;;;;;5.15;2.50;;;;;;;13.44;62.88;92026.84;4995155;28;20058;-83
2021/04/06 08:02:30;;;;;;;5.73;2.77;;;;;;;13.46;61.87;92020.44;4995041;28;20046;-83
2021/04/06 08:05:06;;;;;;;6.53;2.65;;;;;;;13.52;61.62;92021.22;4995197;28;20050;-83
2021/04/06 08:07:34;;;;;;;4.68;3.00;;;;;;;13.28;61.82;91988.16;4995321;28;20542;-84
2021/04/06 08:10:02;;;;;;;6.57;2.90;;;;;;;13.44;61.78;92008.81;4995057;28;20078;-84
2021/04/06 08:12:32;;;;;;;5.65;2.35;;;;;;;13.52;61.89;92000.56;4994747;28;20052;-84
2021/04/06 08:15:01;;;;;;;4.35;2.28;;;;;;;13.25;62.09;91982.72;4994794;28;20520;-83
2021/04/06 08:17:48;;;;;;;6.72;2.45;;;;;;;13.71;62.37;91987.94;4994685;28;20517;-86
2021/04/06 08:20:24;;;;;;;5.03;2.75;;;;;;;13.78;61.66;91989.50;4994776;28;20046;-85
2021/04/06 08:22:52;;;;;;;;;;;;;;;13.66;62.22;91987.94;4995081;28;20050;-85
2021/04/06 08:25:40;;;;;;;7.40;2.20;;;;;;;13.85;60.73;91990.00;4994502;28;19926;-85
2021/04/06 08:28:25;;;;;;;7.65;4.20;;;;;;;14.23;60.18;91977.53;4994611;28;20042;-85
2021/04/06 08:30:52;;;;;;;4.78;2.42;;;;;;;14.33;59.55;91975.94;4994642;28;20042;-84
2021/04/06 08:33:27;;;;;;;;;;;;;;;14.28;59.28;91969.78;4994641;28;20104;-83
2021/04/06 08:36:04;;;;;;;5.18;2.25;;;;;;;14.38;59.16;91971.56;4994425;28;20020;-85
2021/04/06 08:38:46;;;;;;;5.18;2.30;;;;;;;14.46;59.29;91957.31;4994473;28;20050;-85
2021/04/06 08:41:14;;;;;;;5.53;3.22;;;;;;;14.53;59.69;91957.03;4994242;28;20046;-85
2021/04/06 08:43:43;;;;;;;9.07;2.45;;;;;;;14.61;59.28;91951.31;4994393;28;20057;-85
2021/04/06 08:46:12;;;;;;;3.90;1.95;;;;;;;14.42;58.83;91944.16;4994466;28;20561;-85
2021/04/06 08:48:50;;;;;;;9.45;3.53;;;;;;;14.65;58.36;91942.00;4994192;28;20050;-84
2021/04/06 08:51:19;;;;;;;4.60;2.13;;;;;;;14.51;58.67;91949.56;4994048;28;20142;-85
2021/04/06 08:53:46;;;;;;;10.98;5.40;;;;;;;14.64;59.55;91937.88;4994020;28;20062;-85
2021/04/06 08:56:13;;;;;;;7.25;3.13;;;;;;;14.66;58.73;91935.78;4993913;28;20518;-85
2021/04/06 08:58:39;;;;;;;8.90;3.63;;;;;;;14.78;56.87;91939.91;4993793;28;20050;-83
2021/04/06 09:01:06;;;;;;;12.80;6.28;;;;;;;15.03;57.29;91938.19;4993983;28;20517;-85
2021/04/06 09:03:33;;;;;;;6.25;3.13;;;;;;;15.12;57.75;91934.00;4994100;28;20061;-84
2021/04/06 09:06:04;;;;;;;11.23;3.22;;;;;;;15.09;56.11;91927.56;4993852;28;20047;-83
2021/04/06 09:08:53;;;;;;;69.50;23.15;;;;;;;15.20;55.87;91920.50;4992644;28;20046;-85
2021/04/06 09:11:20;;;;;;;12.70;6.03;;;;;;;15.35;55.21;91921.41;4993753;28;20050;-85
2021/04/06 09:13:47;;;;;;;47.58;18.27;;;;;;;15.60;55.19;91917.84;4993547;28;20491;-85
2021/04/06 09:16:14;;;;;;;13.25;5.47;;;;;;;15.61;54.54;91918.63;4993783;28;20483;-83
2021/04/06 09:18:40;;;;;;;10.38;3.90;;;;;;;15.69;54.29;91915.44;4993613;28;20112;-82
2021/04/06 09:21:08;;;;;;;;;;;;;;;16.07;54.16;91911.50;4993999;28;20522;-83
2021/04/06 09:23:37;;;;;;;9.90;4.18;;;;;;;16.31;52.63;91893.34;4993379;28;20016;-84
2021/04/06 09:26:12;;;;;;;11.48;4.25;;;;;;;16.46;52.42;91901.97;4993743;28;20050;-85
2021/04/06 09:28:40;;;;;;;10.65;5.07;;;;;;;16.67;50.80;91890.31;4993599;28;20046;-85
2021/04/06 09:31:07;;;;;;;44.75;14.00;;;;;;;16.88;51.77;91891.84;4993355;28;20553;-85
2021/04/06 09:33:33;;;;;;;19.33;8.68;;;;;;;16.61;49.84;91890.66;4993202;28;20065;-85
2021/04/06 09:35:59;;;;;;;;;;;;;;;16.90;48.96;91879.38;4993698;28;21080;-86
2021/04/06 09:38:26;;;;;;;83.53;28.38;;;;;;;16.79;48.18;91876.94;4993301;28;19921;-83
2021/04/06 09:40:54;;;;;;;104.20;35.08;;;;;;;16.96;48.39;91870.47;4993455;28;20046;-83
2021/04/06 09:43:21;;;;;;;63.30;21.42;;;;;;;17.02;46.38;91864.16;4993376;28;20068;-83
2021/04/06 09:45:48;;;;;;;50.13;16.33;;;;;;;16.99;45.47;91864.69;4993053;28;20101;-83
2021/04/06 09:48:16;;;;;;;54.45;19.48;;;;;;;17.12;46.88;91855.47;4993150;28;20042;-84
2021/04/06 09:50:56;;;;;;;8.70;4.40;;;;;;;17.22;45.73;91860.50;4989642;28;20100;-84
2021/04/06 09:53:22;;;;;;;7.18;2.25;;;;;;;17.48;46.06;91854.91;4992674;28;20565;-84
2021/04/06 09:55:49;;;;;;;4.25;1.70;;;;;;;17.35;46.40;91847.84;4993119;28;20050;-84
2021/04/06 09:58:18;;;;;;;16.35;7.07;;;;;;;17.02;45.33;91846.00;4993022;28;20050;-85
2021/04/06 10:00:46;;;;;;;42.88;16.05;;;;;;;16.55;47.42;91849.25;4992970;28;20055;-85
2021/04/06 10:03:14;;;;;;;46.28;18.77;;;;;;;16.32;47.30;91856.03;4992707;28;20050;-84
2021/04/06 10:05:44;;;;;;;17.50;6.57;;;;;;;16.12;48.33;91842.25;4992772;28;20513;-85
2021/04/06 10:08:11;;;;;;;6.97;3.35;;;;;;;16.37;48.01;91821.50;4992869;28;20054;-85
2021/04/06 10:10:45;;;;;;;19.13;8.02;;;;;;;16.42;48.11;91826.63;4992769;28;20042;-85
2021/04/06 10:13:12;;;;;;;11.10;3.80;;;;;;;16.40;45.68;91828.72;4992343;28;20054;-85
2021/04/06 10:15:40;;;;;;;21.73;5.28;;;;;;;16.20;45.83;91822.75;4992378;28;20058;-84
2021/04/06 10:18:08;;;;;;;21.88;8.30;;;;;;;16.32;47.97;91817.16;4992808;28;20043;-84
2021/04/06 10:20:41;;;;;;;18.10;6.68;;;;;;;16.29;47.63;91808.13;4991869;28;20418;-85
2021/04/06 10:23:08;;;;;;;7.70;3.17;;;;;;;16.66;47.19;91792.09;4992477;28;20051;-84
2021/04/06 10:25:37;;;;;;;6.82;3.17;;;;;;;17.13;46.19;91796.56;4992493;28;20062;-84
2021/04/06 10:28:06;;;;;;;20.77;6.35;;;;;;;17.01;43.63;91791.81;4992366;28;20042;-86
2021/04/06 10:30:42;;;;;;;9.32;3.50;;;;;;;16.85;41.47;91793.88;4992590;28;20165;-85
2021/04/06 10:33:11;;;;;;;3.25;1.63;;;;;;;17.15;43.36;91786.66;4992176;28;20426;-86
2021/04/06 10:35:42;;;;;;;8.15;3.63;;;;;;;17.44;43.11;91778.66;4988654;28;20046;-85
2021/04/06 10:38:16;;;;;;;6.90;3.25;;;;;;;17.57;42.22;91782.31;4992000;28;20050;-85
2021/04/06 10:40:44;;;;;;;11.77;5.15;;;;;;;17.52;41.46;91772.03;4991925;28;20561;-83
2021/04/06 10:43:12;;;;;;;5.35;2.78;;;;;;;17.38;42.35;91761.63;4992038;28;20050;-84
2021/04/06 10:45:42;;;;;;;3.65;1.88;;;;;;;17.31;42.80;91764.59;4991951;28;20055;-85
2021/04/06 10:48:14;;;;;;;3.38;1.63;;;;;;;17.55;42.58;91761.03;4991960;28;20522;-85
2021/04/06 10:50:43;;;;;;;3.10;1.30;;;;;;;17.29;42.81;91756.34;4992180;28;20402;-86
2021/04/06 10:53:22;;;;;;;5.55;1.52;;;;;;;17.47;42.51;91746.16;4991713;28;20462;-85
2021/04/06 10:55:52;;;;;;;5.25;2.38;;;;;;;17.88;42.09;91734.97;4992033;28;20046;-85
2021/04/06 10:58:27;;;;;;;6.35;2.25;;;;;;;18.30;42.64;91747.88;4991882;28;20058;-85
2021/04/06 11:01:02;;;;;;;5.63;2.10;;;;;;;18.19;41.80;91735.44;4991814;28;20506;-85
2021/04/06 11:03:49;;;;;;;5.67;2.10;;;;;;;18.27;42.78;91729.50;4991700;28;20046;-86
2021/04/06 11:06:23;;;;;;;7.07;2.08;;;;;;;18.21;43.71;91739.28;4991947;28;20057;-86
2021/04/06 11:08:52;;;;;;;3.97;1.38;;;;;;;18.18;41.72;91734.66;4991780;28;20050;-85
2021/04/06 11:11:36;;;;;;;4.72;2.47;;;;;;;17.81;41.84;91716.41;4991726;28;20046;-86
2021/04/06 11:14:05;;;;;;;4.13;1.73;;;;;;;17.70;41.46;91718.47;4991100;28;20054;-85
2021/04/06 11:16:34;;;;;;;3.22;1.88;;;;;;;17.67;41.22;91707.88;4991491;28;20051;-85
2021/04/06 11:19:04;;;;;;;5.68;1.55;;;;;;;17.51;41.04;91695.22;4991484;28;20517;-83
2021/04/06 11:21:32;;;;;;;3.45;1.80;;;;;;;17.34;41.99;91700.97;4991427;28;20507;-86
2021/04/06 11:23:58;;;;;;;4.15;1.30;;;;;;;17.45;43.48;91704.91;4991497;28;20038;-85
2021/04/06 11:26:25;;;;;;;2.35;1.20;;;;;;;17.63;43.77;91695.47;4991222;28;20061;-86
2021/04/06 11:28:52;;;;;;;3.88;1.75;;;;;;;17.22;43.37;91683.31;4991512;28;20046;-86
2021/04/06 11:31:18;;;;;;;6.15;1.95;;;;;;;16.93;44.80;91685.06;4990802;28;20057;-86
2021/04/06 11:33:45;;;;;;;6.38;2.00;;;;;;;16.73;45.09;91682.81;4991284;28;20061;-86
2021/04/06 11:36:12;;;;;;;4.55;2.15;;;;;;;16.96;43.10;91671.50;4991493;28;20057;-85
2021/04/06 11:38:39;;;;;;;3.20;1.30;;;;;;;17.29;42.44;91662.91;4991338;28;20073;-86
2021/04/06 11:41:05;;;;;;;3.55;1.55;;;;;;;17.67;41.25;91671.53;4991234;28;20043;-84
2021/04/06 11:43:32;;;;;;;3.95;1.83;;;;;;;17.78;40.74;91672.88;4991188;28;20046;-84
2021/04/06 11:45:58;;;;;;;4.40;0.93;;;;;;;18.18;40.26;91661.88;4991361;28;20400;-85
2021/04/06 11:48:25;;;;;;;4.07;2.10;;;;;;;18.56;40.43;91666.72;4991344;28;20046;-85
2021/04/06 11:50:52;;;;;;;4.60;1.23;;;;;;;18.50;39.46;91656.72;4991147;28;20502;-87
2021/04/06 11:53:19;;;;;;;2.55;1.27;;;;;;;18.45;39.84;91634.22;4991202;28;20085;-85